Terminal Aerodrome Forecast
Issued by NWS Green Bay, WI

Home | Current Version | Previous Version | Text Only | Print | Product List | Glossary Off
Versions: 1 2 3 4 5 6 7 8 9 10 11 12 13 14 15 16 17 18 19 20 21 22 23 24 25 26 27 28 29 30 31 32 33 34 35 36 37 38 39 40 41 42 43 44 45 46 47 48 49 50

000
FTUS43 KGRB 182100 AAB
TAFGRB
TAF AMD
KGRB 182152Z 1822/1918 15012KT 6SM -SHRA BR SCT024 OVC035
      TEMPO 1822/1901 3SM -TSRA BKN020CB
     FM190100 17003KT 4SM BR VCTS BKN025CB
     FM191400 22006KT 6SM BR VCSH SCT025 BKN040=

USA.gov is the U.S. government's official web portal to all federal, state and local government web resources and services.